Time;durP1;ratioP1;P1;durP2;ratioP2;P2;SDS_P1;SDS_P2;PMS_P1;PMS_P2;Temp;Humidity;BMP_temperature;BMP_pressure;BME280_temperature;BME280_humidity;BME280_pressure;Samples;Min_cycle;Max_cycle;Signal;HPM_P1;HPM_P2
2022/09/05 00:02:02;;;;;;;6.70;4.23;;;18.20;83.00;;;;;;5028008;28;20992;-74
2022/09/05 00:04:39;;;;;;;6.33;3.80;;;18.20;83.10;;;;;;5029548;28;20532;-71
2022/09/05 00:07:17;;;;;;;4.23;3.30;;;18.20;83.10;;;;;;5026989;28;20183;-74
2022/09/05 00:10:02;;;;;;;6.10;3.30;;;18.20;83.30;;;;;;5027823;28;20958;-73
2022/09/05 00:12:31;;;;;;;7.40;4.73;;;18.20;83.10;;;;;;5026485;28;20459;-75
2022/09/05 00:15:11;;;;;;;5.20;3.27;;;18.10;83.40;;;;;;5029706;28;20880;-71
2022/09/05 00:18:07;;;;;;;5.40;3.50;;;18.10;83.60;;;;;;5014107;28;20440;-71
2022/09/05 00:21:00;;;;;;;4.20;3.20;;;18.10;83.80;;;;;;5026272;28;20461;-71
2022/09/05 00:23:38;;;;;;;5.43;3.43;;;18.00;83.70;;;;;;5027006;28;20538;-71
2022/09/05 00:26:16;;;;;;;5.53;3.30;;;18.00;83.80;;;;;;5035080;28;20415;-71
2022/09/05 00:28:47;;;;;;;5.10;3.23;;;18.00;83.70;;;;;;5033291;28;20425;-73
2022/09/05 00:31:32;;;;;;;5.00;3.30;;;18.00;83.60;;;;;;5025318;28;20416;-71
2022/09/05 00:34:01;;;;;;;3.73;3.10;;;18.00;83.80;;;;;;5029915;28;20871;-70
2022/09/05 00:36:35;;;;;;;6.63;4.03;;;17.90;83.70;;;;;;5036659;28;20510;-71
2022/09/05 00:39:06;;;;;;;9.93;4.90;;;17.80;83.80;;;;;;5028810;28;20434;-71
2022/09/05 00:41:32;;;;;;;5.57;3.30;;;17.80;84.40;;;;;;5027856;28;20977;-71
2022/09/05 00:44:00;;;;;;;5.50;3.60;;;17.80;84.40;;;;;;5024620;28;20444;-73
2022/09/05 00:46:34;;;;;;;4.93;3.33;;;17.70;85.20;;;;;;5029484;28;20475;-71
2022/09/05 00:49:18;;;;;;;4.70;3.23;;;17.70;85.60;;;;;;5025079;28;20439;-70
2022/09/05 00:52:05;;;;;;;3.90;3.10;;;17.70;85.50;;;;;;5023040;28;20464;-73
2022/09/05 00:54:51;;;;;;;5.10;3.77;;;17.70;85.20;;;;;;5017998;28;20419;-72
2022/09/05 00:57:50;;;;;;;4.40;3.17;;;17.80;84.90;;;;;;4990163;28;21118;-71
2022/09/05 01:00:18;;;;;;;6.00;3.43;;;17.80;85.20;;;;;;5025161;28;20490;-72
2022/09/05 01:02:55;;;;;;;5.73;3.67;;;17.80;85.20;;;;;;5025015;28;20518;-71
2022/09/05 01:05:42;;;;;;;6.23;3.60;;;17.70;85.20;;;;;;5011585;28;20983;-72
2022/09/05 01:08:44;;;;;;;7.17;3.50;;;17.70;85.30;;;;;;5029170;28;20416;-72
2022/09/05 01:11:34;;;;;;;6.50;3.37;;;17.70;85.30;;;;;;5025969;28;20430;-71
2022/09/05 01:14:42;;;;;;;4.60;3.50;;;17.70;85.50;;;;;;5029279;28;20453;-71
2022/09/05 01:17:28;;;;;;;6.30;3.80;;;17.60;85.90;;;;;;5029282;28;20423;-71
2022/09/05 01:20:04;;;;;;;5.70;3.50;;;17.50;86.20;;;;;;5011579;28;20447;-71
2022/09/05 01:22:54;;;;;;;14.30;3.93;;;17.60;86.30;;;;;;5025746;28;20630;-70
2022/09/05 01:25:42;;;;;;;5.90;4.03;;;17.50;86.50;;;;;;5028436;28;20411;-71
2022/09/05 01:28:33;;;;;;;5.90;3.93;;;17.40;86.60;;;;;;5014669;28;20419;-70
2022/09/05 01:31:05;;;;;;;4.43;3.40;;;17.40;86.80;;;;;;5009859;28;20432;-72
2022/09/05 01:33:42;;;;;;;6.60;3.80;;;17.40;86.80;;;;;;5010185;28;20551;-70
2022/09/05 01:36:40;;;;;;;5.67;3.37;;;17.40;86.60;;;;;;5026428;28;20419;-70
2022/09/05 01:39:24;;;;;;;8.13;4.30;;;17.50;86.50;;;;;;5033111;28;20411;-71
2022/09/05 01:42:05;;;;;;;4.80;3.60;;;17.40;86.50;;;;;;5034725;28;20479;-71
2022/09/05 01:44:55;;;;;;;4.50;3.63;;;17.30;86.90;;;;;;5030736;28;20447;-72
2022/09/05 01:47:21;;;;;;;8.20;4.13;;;17.30;87.10;;;;;;5024737;28;20506;-71
2022/09/05 01:50:14;;;;;;;5.90;3.43;;;17.30;87.30;;;;;;5007193;28;20919;-71
2022/09/05 01:53:14;;;;;;;7.37;3.60;;;17.20;87.10;;;;;;5026195;28;20220;-73
2022/09/05 01:56:04;;;;;;;8.90;4.97;;;17.10;88.00;;;;;;5009011;28;20493;-72
2022/09/05 01:58:42;;;;;;;6.47;3.83;;;17.10;88.30;;;;;;5014889;28;20538;-71
2022/09/05 02:01:30;;;;;;;5.07;3.77;;;17.10;88.10;;;;;;5027390;28;21051;-71
2022/09/05 02:04:14;;;;;;;5.30;3.80;;;17.10;88.00;;;;;;5033189;28;20423;-73
2022/09/05 02:07:17;;;;;;;4.10;3.53;;;17.20;88.00;;;;;;5031562;28;20515;-74
2022/09/05 02:09:59;;;;;;;4.97;3.93;;;17.00;88.10;;;;;;5010657;28;20469;-72
2022/09/05 02:12:44;;;;;;;5.17;3.73;;;16.90;88.60;;;;;;5030590;28;20462;-71
2022/09/05 02:15:24;;;;;;;9.07;4.93;;;16.80;89.00;;;;;;5026505;28;20423;-72
2022/09/05 02:17:57;;;;;;;5.07;3.73;;;16.70;89.20;;;;;;5014264;28;20459;-70
2022/09/05 02:20:42;;;;;;;4.53;3.67;;;16.60;90.10;;;;;;5015057;28;20445;-71
2022/09/05 02:23:23;;;;;;;8.33;3.90;;;16.70;90.10;;;;;;5028950;28;20459;-71
2022/09/05 02:26:01;;;;;;;4.43;3.67;;;16.70;90.10;;;;;;5028320;28;20482;-71
2022/09/05 02:28:46;;;;;;;5.33;3.87;;;16.70;89.70;;;;;;5028751;28;20437;-70
2022/09/05 02:31:44;;;;;;;8.20;4.50;;;16.70;89.70;;;;;;5027925;28;20454;-70
2022/09/05 02:34:47;;;;;;;5.47;4.13;;;16.80;89.20;;;;;;5025778;28;20458;-74
2022/09/05 02:37:24;;;;;;;7.40;4.03;;;16.80;89.30;;;;;;5025679;28;20420;-70
2022/09/05 02:40:24;;;;;;;5.73;3.60;;;16.80;89.50;;;;;;5029574;28;20763;-71
2022/09/05 02:42:55;;;;;;;7.00;3.80;;;16.70;89.30;;;;;;5030354;28;20530;-69
2022/09/05 02:45:32;;;;;;;6.70;4.03;;;16.60;89.60;;;;;;5027479;28;20439;-71
2022/09/05 02:48:08;;;;;;;6.17;4.00;;;16.60;89.70;;;;;;5033147;28;20521;-70
2022/09/05 02:50:54;;;;;;;7.50;4.23;;;16.60;89.90;;;;;;5005025;28;20834;-71
2022/09/05 02:53:21;;;;;;;7.80;3.97;;;16.60;89.90;;;;;;5027377;28;20463;-71
2022/09/05 02:56:21;;;;;;;5.50;4.20;;;16.60;89.70;;;;;;5015434;28;20435;-73
2022/09/05 02:59:09;;;;;;;5.80;3.80;;;16.60;89.70;;;;;;5030573;28;20591;-71
2022/09/05 03:01:43;;;;;;;4.97;3.50;;;16.60;89.90;;;;;;5024906;28;20610;-71
2022/09/05 03:04:30;;;;;;;5.13;3.57;;;16.50;90.10;;;;;;5028764;28;20513;-70
2022/09/05 03:07:08;;;;;;;4.80;3.83;;;16.50;90.20;;;;;;5013741;28;20440;-69
2022/09/05 03:09:51;;;;;;;11.13;3.80;;;16.50;90.40;;;;;;5026028;28;20888;-72
2022/09/05 03:12:54;;;;;;;4.67;3.50;;;16.50;90.50;;;;;;5025710;28;21011;-71
2022/09/05 03:15:58;;;;;;;5.07;3.70;;;16.50;90.40;;;;;;5023895;28;20828;-70
2022/09/05 03:18:55;;;;;;;5.17;3.70;;;16.50;90.40;;;;;;5031373;28;20439;-70
2022/09/05 03:21:57;;;;;;;6.00;3.60;;;16.40;90.30;;;;;;5027559;28;20482;-72
2022/09/05 03:24:26;;;;;;;7.17;4.00;;;16.40;90.40;;;;;;5022524;28;20424;-71
2022/09/05 03:27:07;;;;;;;4.17;3.60;;;16.50;90.40;;;;;;5031067;28;20419;-71
2022/09/05 03:30:04;;;;;;;7.53;3.20;;;16.50;90.30;;;;;;5027375;28;20439;-71
2022/09/05 03:32:30;;;;;;;6.50;4.10;;;16.60;90.20;;;;;;5021066;28;20953;-70
2022/09/05 03:35:17;;;;;;;5.60;3.93;;;16.60;89.90;;;;;;5030486;28;20438;-71
2022/09/05 03:37:53;;;;;;;5.40;3.30;;;16.50;90.10;;;;;;5023287;28;20618;-70
2022/09/05 03:40:35;;;;;;;6.53;3.70;;;16.50;89.90;;;;;;5028953;28;20423;-70
2022/09/05 03:43:23;;;;;;;6.07;4.03;;;16.50;90.20;;;;;;5029904;28;20464;-71
2022/09/05 03:46:11;;;;;;;7.13;3.70;;;16.50;90.20;;;;;;5029191;28;20438;-71
2022/09/05 03:49:12;;;;;;;7.90;4.10;;;16.50;90.20;;;;;;5030429;28;20414;-71
2022/09/05 03:51:59;;;;;;;8.90;4.23;;;16.60;90.10;;;;;;5024679;28;20445;-71
2022/09/05 03:54:36;;;;;;;5.20;3.80;;;16.60;89.90;;;;;;5027143;28;20430;-70
2022/09/05 03:57:39;;;;;;;3.97;3.50;;;16.60;89.90;;;;;;5030032;28;20435;-70
2022/09/05 04:00:07;;;;;;;6.70;3.90;;;16.50;89.90;;;;;;5008280;28;20423;-70
2022/09/05 04:02:51;;;;;;;6.13;3.53;;;16.50;90.10;;;;;;5027038;28;20482;-70
2022/09/05 04:05:23;;;;;;;5.03;3.87;;;16.50;90.10;;;;;;5027477;28;20466;-71
2022/09/05 04:07:57;;;;;;;6.50;3.47;;;16.60;90.10;;;;;;5026451;28;20967;-70
2022/09/05 04:10:34;;;;;;;5.97;4.07;;;16.60;89.70;;;;;;5027147;28;20412;-71
2022/09/05 04:13:19;;;;;;;5.43;3.83;;;16.60;89.60;;;;;;5026986;28;21090;-70
2022/09/05 04:15:59;;;;;;;5.40;4.20;;;16.50;89.70;;;;;;5027048;28;20937;-72
2022/09/05 04:18:39;;;;;;;4.83;3.63;;;16.50;89.90;;;;;;5026370;28;20506;-72
2022/09/05 04:21:29;;;;;;;7.73;3.90;;;16.50;90.10;;;;;;5024943;28;20830;-70
2022/09/05 04:24:00;;;;;;;5.50;4.00;;;16.50;90.00;;;;;;5026448;28;20440;-71
2022/09/05 04:26:48;;;;;;;5.80;4.50;;;16.40;90.20;;;;;;5026174;28;20506;-70
2022/09/05 04:29:44;;;;;;;4.40;3.90;;;16.50;90.20;;;;;;5021236;28;20514;-70
2022/09/05 04:32:36;;;;;;;5.43;4.17;;;16.40;90.30;;;;;;5019620;28;20448;-72
2022/09/05 04:35:27;;;;;;;5.77;4.63;;;16.40;90.30;;;;;;5030527;28;20428;-71
2022/09/05 04:38:10;;;;;;;6.27;3.97;;;16.40;90.30;;;;;;5028989;28;20462;-70
2022/09/05 04:40:42;;;;;;;4.73;3.87;;;16.40;90.30;;;;;;5028835;28;20773;-71
2022/09/05 04:43:17;;;;;;;6.30;3.40;;;16.40;90.20;;;;;;5025833;28;20454;-69
2022/09/05 04:46:13;;;;;;;7.57;4.47;;;16.40;90.40;;;;;;5030578;28;20455;-70
2022/09/05 04:48:44;;;;;;;6.20;4.70;;;16.40;90.60;;;;;;5022278;28;20970;-70
2022/09/05 04:51:45;;;;;;;6.47;4.20;;;16.40;90.50;;;;;;5025100;28;20416;-72
2022/09/05 04:54:19;;;;;;;5.30;4.07;;;16.40;90.50;;;;;;5021715;28;20434;-71
2022/09/05 04:56:49;;;;;;;5.50;4.43;;;16.40;90.60;;;;;;5025049;28;20945;-72
2022/09/05 04:59:30;;;;;;;6.63;4.70;;;16.30;90.60;;;;;;5027446;28;20427;-70
2022/09/05 05:02:01;;;;;;;5.67;3.97;;;16.30;90.60;;;;;;5025105;28;20480;-71
2022/09/05 05:04:28;;;;;;;6.60;4.40;;;16.30;90.50;;;;;;5026026;28;20423;-71
2022/09/05 05:07:37;;;;;;;7.73;4.70;;;16.30;90.60;;;;;;5024780;28;20922;-72
2022/09/05 05:10:07;;;;;;;10.87;4.60;;;16.40;90.60;;;;;;5026987;28;20417;-72
2022/09/05 05:12:51;;;;;;;7.57;4.80;;;16.50;90.30;;;;;;5010676;28;20852;-71
2022/09/05 05:15:21;;;;;;;6.37;4.60;;;16.60;89.20;;;;;;5023842;28;20507;-70
2022/09/05 05:18:05;;;;;;;7.33;4.80;;;16.60;89.00;;;;;;5004509;28;20454;-70
2022/09/05 05:20:56;;;;;;;7.07;4.43;;;16.50;89.50;;;;;;5024699;28;20763;-71
2022/09/05 05:23:48;;;;;;;7.27;4.10;;;16.50;89.90;;;;;;5015519;28;20484;-72
2022/09/05 05:26:28;;;;;;;8.80;4.23;;;16.50;90.20;;;;;;5022313;28;20424;-72
2022/09/05 05:29:28;;;;;;;12.27;4.20;;;16.40;90.30;;;;;;5037262;28;20501;-71
2022/09/05 05:31:58;;;;;;;7.00;4.90;;;16.50;90.30;;;;;;5032377;28;20687;-71
2022/09/05 05:34:27;;;;;;;5.97;4.27;;;16.60;90.30;;;;;;5036907;28;20439;-73
2022/09/05 05:37:07;;;;;;;7.70;4.20;;;16.60;90.30;;;;;;5038254;28;20526;-71
2022/09/05 05:39:39;;;;;;;5.77;3.93;;;16.60;90.30;;;;;;5024335;28;20534;-74
2022/09/05 05:42:23;;;;;;;7.40;4.60;;;16.70;90.20;;;;;;5021611;28;20471;-70
2022/09/05 05:44:54;;;;;;;6.90;4.63;;;16.70;90.10;;;;;;5027837;28;20446;-71
2022/09/05 05:47:33;;;;;;;8.33;4.00;;;16.70;90.00;;;;;;5027328;28;20425;-70
2022/09/05 05:50:25;;;;;;;7.60;4.20;;;16.80;89.90;;;;;;5026129;28;20420;-70
2022/09/05 05:53:13;;;;;;;8.43;5.47;;;16.80;89.90;;;;;;5026236;28;20461;-69
2022/09/05 05:56:09;;;;;;;8.47;4.70;;;16.80;89.60;;;;;;5013631;28;20749;-71
2022/09/05 05:59:06;;;;;;;9.17;5.53;;;16.80;89.50;;;;;;5021541;28;20419;-69
2022/09/05 06:02:08;;;;;;;8.77;5.27;;;16.80;89.30;;;;;;5022754;28;20456;-70
2022/09/05 06:04:58;;;;;;;8.63;5.03;;;16.90;89.30;;;;;;5018990;28;20412;-73
2022/09/05 06:07:27;;;;;;;6.93;4.60;;;17.00;89.30;;;;;;5006262;28;20459;-71
2022/09/05 06:10:22;;;;;;;7.37;4.80;;;17.00;89.20;;;;;;5025850;28;20492;-72
2022/09/05 06:13:20;;;;;;;8.23;5.33;;;17.10;89.20;;;;;;5007218;28;20478;-72
2022/09/05 06:16:13;;;;;;;9.07;5.93;;;17.20;88.30;;;;;;5028270;28;20415;-73
2022/09/05 06:18:56;;;;;;;13.50;5.93;;;17.20;87.70;;;;;;5027442;28;20436;-74
2022/09/05 06:21:54;;;;;;;10.90;6.37;;;17.10;87.70;;;;;;5035245;28;20474;-73
2022/09/05 06:24:35;;;;;;;7.60;5.00;;;17.00;88.00;;;;;;5023296;28;20484;-71
2022/09/05 06:27:32;;;;;;;10.03;5.43;;;17.10;88.10;;;;;;5030468;28;20747;-71
2022/09/05 06:30:00;;;;;;;6.43;4.73;;;17.10;88.00;;;;;;5028113;28;20429;-72
2022/09/05 06:32:46;;;;;;;12.00;6.13;;;17.20;87.60;;;;;;5028193;28;20835;-71
2022/09/05 06:35:26;;;;;;;6.80;5.10;;;17.20;87.30;;;;;;5025390;28;20411;-72
2022/09/05 06:38:26;;;;;;;11.90;5.60;;;17.30;87.30;;;;;;5012161;28;20430;-72
2022/09/05 06:41:14;;;;;;;9.33;5.57;;;17.40;87.10;;;;;;5023579;28;20827;-71
2022/09/05 06:43:48;;;;;;;12.10;6.07;;;17.50;87.00;;;;;;5023730;28;20457;-72
2022/09/05 06:46:29;;;;;;;11.70;6.50;;;17.50;87.10;;;;;;5027563;28;20408;-73
2022/09/05 06:49:12;;;;;;;7.37;4.90;;;17.60;86.80;;;;;;5027216;28;20436;-71
2022/09/05 06:51:43;;;;;;;10.67;6.10;;;17.80;85.30;;;;;;5024586;28;20817;-74
2022/09/05 06:54:44;;;;;;;8.10;5.70;;;17.90;84.60;;;;;;5024753;28;20502;-73
2022/09/05 06:57:30;;;;;;;7.40;5.20;;;17.90;85.20;;;;;;4930430;29;20471;-72
2022/09/05 07:00:19;;;;;;;8.87;5.23;;;18.00;84.70;;;;;;5024379;28;20455;-73
2022/09/05 07:03:03;;;;;;;10.27;5.53;;;18.10;84.40;;;;;;5029680;28;20464;-72
2022/09/05 07:05:55;;;;;;;10.50;5.50;;;18.30;84.00;;;;;;5029300;28;20438;-72
2022/09/05 07:08:43;;;;;;;7.40;4.27;;;18.40;83.70;;;;;;5031911;28;20429;-72
2022/09/05 07:11:09;;;;;;;11.57;5.47;;;18.50;83.70;;;;;;5027833;28;20980;-71
2022/09/05 07:13:40;;;;;;;8.13;5.10;;;18.60;83.30;;;;;;5028924;28;20488;-74
2022/09/05 07:16:21;;;;;;;10.50;5.83;;;18.70;83.10;;;;;;5026046;28;20418;-71
2022/09/05 07:19:24;;;;;;;8.27;5.40;;;18.80;82.70;;;;;;5030866;28;20423;-71
2022/09/05 07:22:12;;;;;;;7.53;4.50;;;18.80;82.50;;;;;;5009740;28;20514;-74
2022/09/05 07:24:43;;;;;;;9.10;5.00;;;18.90;82.40;;;;;;5011558;28;20483;-73
2022/09/05 07:27:11;;;;;;;8.20;4.30;;;18.90;81.20;;;;;;5028627;28;20411;-71
2022/09/05 07:29:43;;;;;;;8.30;4.50;;;19.10;81.20;;;;;;5026457;28;20424;-71
2022/09/05 07:32:16;;;;;;;7.70;5.20;;;19.20;80.80;;;;;;5022786;28;20981;-72
2022/09/05 07:34:45;;;;;;;7.13;4.73;;;19.40;80.20;;;;;;5029790;28;20430;-72
2022/09/05 07:37:24;;;;;;;9.20;4.63;;;19.40;79.30;;;;;;5025037;28;20821;-72
2022/09/05 07:39:55;;;;;;;6.00;4.50;;;19.50;79.30;;;;;;5030105;28;20481;-72
2022/09/05 07:42:27;;;;;;;9.00;5.30;;;19.50;79.20;;;;;;5024201;28;20471;-72
2022/09/05 07:44:58;;;;;;;7.70;3.90;;;19.60;79.00;;;;;;5027274;28;20521;-72
2022/09/05 07:47:39;;;;;;;8.27;4.70;;;19.70;78.90;;;;;;5026243;28;20486;-71
2022/09/05 07:50:08;;;;;;;5.90;4.43;;;19.80;78.30;;;;;;5024251;28;20749;-72
2022/09/05 07:52:39;;;;;;;6.23;4.73;;;20.00;77.80;;;;;;5029470;28;20626;-72
2022/09/05 07:55:24;;;;;;;8.20;5.20;;;20.00;77.40;;;;;;5028063;28;20422;-71
2022/09/05 07:57:51;;;;;;;8.67;5.20;;;20.10;76.70;;;;;;5031313;28;20804;-70
2022/09/05 08:00:20;;;;;;;6.60;4.27;;;20.30;75.80;;;;;;5029139;28;20895;-72
2022/09/05 08:02:46;;;;;;;11.90;5.80;;;20.30;75.70;;;;;;5026569;28;20533;-72
2022/09/05 08:05:20;;;;;;;7.40;5.17;;;20.40;75.80;;;;;;5009674;28;20412;-71
2022/09/05 08:07:50;;;;;;;12.53;5.67;;;20.50;76.10;;;;;;5028796;28;20412;-72
2022/09/05 08:10:37;;;;;;;9.73;5.23;;;20.60;76.10;;;;;;5029040;28;20417;-72
2022/09/05 08:13:15;;;;;;;6.10;4.47;;;20.60;76.10;;;;;;5026674;28;20468;-71
2022/09/05 08:15:52;;;;;;;6.17;4.77;;;20.70;76.20;;;;;;5028355;28;21217;-71
2022/09/05 08:18:48;;;;;;;7.10;4.30;;;20.80;75.80;;;;;;5026124;28;20910;-72
2022/09/05 08:21:40;;;;;;;5.53;4.23;;;20.90;75.70;;;;;;5024973;28;20458;-72
2022/09/05 08:24:24;;;;;;;8.03;4.60;;;21.10;75.10;;;;;;5024004;28;20429;-72
2022/09/05 08:27:10;;;;;;;6.57;5.03;;;21.20;74.60;;;;;;5029419;28;20418;-71
2022/09/05 08:29:54;;;;;;;5.63;4.50;;;21.30;74.20;;;;;;5021784;28;20835;-71
2022/09/05 08:32:40;;;;;;;8.00;5.60;;;21.40;74.00;;;;;;5023831;28;20511;-70
2022/09/05 08:35:13;;;;;;;7.87;5.63;;;21.50;73.70;;;;;;5013222;28;20804;-71
2022/09/05 08:37:41;;;;;;;8.00;4.97;;;21.60;73.60;;;;;;5029022;28;20425;-72
2022/09/05 08:40:18;;;;;;;10.03;4.93;;;21.70;73.20;;;;;;5026987;28;20414;-72
2022/09/05 08:43:12;;;;;;;10.23;5.77;;;21.80;73.20;;;;;;5031008;28;20477;-71
2022/09/05 08:45:55;;;;;;;11.63;5.57;;;21.90;73.20;;;;;;5032140;28;20442;-72
2022/09/05 08:48:38;;;;;;;7.53;5.37;;;21.90;72.60;;;;;;5010965;28;20434;-73
2022/09/05 08:51:36;;;;;;;7.67;5.47;;;21.90;72.90;;;;;;5030396;28;20489;-72
2022/09/05 08:54:26;;;;;;;9.77;4.70;;;22.00;72.70;;;;;;4980536;28;20793;-72
2022/09/05 08:57:08;;;;;;;6.53;4.90;;;22.10;72.10;;;;;;5007480;28;20475;-72
2022/09/05 08:59:53;;;;;;;8.30;4.93;;;22.20;71.80;;;;;;5028735;28;20560;-72
2022/09/05 09:02:46;;;;;;;6.77;5.07;;;22.20;72.00;;;;;;5024764;28;20489;-72
2022/09/05 09:05:49;;;;;;;11.43;5.80;;;22.30;71.70;;;;;;5026420;28;21147;-71
2022/09/05 09:08:34;;;;;;;7.67;4.80;;;22.40;71.70;;;;;;5025982;28;20428;-72
2022/09/05 09:11:09;;;;;;;7.53;4.97;;;22.60;71.40;;;;;;5029951;28;20476;-72
2022/09/05 09:13:54;;;;;;;9.57;5.43;;;22.70;70.70;;;;;;5027180;28;20466;-72
2022/09/05 09:16:23;;;;;;;10.83;5.40;;;22.80;69.70;;;;;;5021108;28;20940;-71
2022/09/05 09:18:48;;;;;;;10.27;4.67;;;23.00;69.40;;;;;;5026308;28;20432;-72
2022/09/05 09:21:29;;;;;;;8.40;4.50;;;23.10;68.50;;;;;;5024263;28;20532;-70
2022/09/05 09:24:20;;;;;;;7.80;4.47;;;23.20;68.50;;;;;;5025181;28;20212;-70
2022/09/05 09:26:54;;;;;;;10.33;5.03;;;23.20;67.60;;;;;;5027149;28;20452;-71
2022/09/05 09:29:20;;;;;;;8.83;4.70;;;23.30;67.70;;;;;;5026211;28;20498;-72
2022/09/05 09:31:52;;;;;;;6.87;4.43;;;23.30;67.60;;;;;;5027919;28;20503;-70
2022/09/05 09:34:28;;;;;;;9.13;4.90;;;23.50;67.20;;;;;;5011692;28;20198;-71
2022/09/05 09:37:13;;;;;;;10.00;5.17;;;23.50;67.20;;;;;;5030317;28;20929;-71
2022/09/05 09:39:48;;;;;;;6.03;3.97;;;23.60;67.20;;;;;;5007624;28;20434;-73
2022/09/05 09:42:40;;;;;;;8.00;5.13;;;23.80;67.50;;;;;;5023573;28;20500;-71
2022/09/05 09:45:14;;;;;;;7.60;4.50;;;24.00;67.70;;;;;;5027812;28;20468;-72
2022/09/05 09:47:52;;;;;;;5.60;4.67;;;24.00;66.70;;;;;;5009113;28;20417;-72
2022/09/05 09:50:55;;;;;;;8.50;4.23;;;23.90;67.00;;;;;;5022332;28;20424;-72
2022/09/05 09:53:33;;;;;;;5.40;4.23;;;23.90;67.30;;;;;;5025032;28;20460;-71
2022/09/05 09:56:37;;;;;;;7.80;4.60;;;24.10;66.60;;;;;;5029580;28;20417;-71
2022/09/05 09:59:27;;;;;;;7.23;4.40;;;24.20;66.30;;;;;;5026462;28;20430;-70
2022/09/05 10:01:59;;;;;;;7.27;4.27;;;24.30;65.70;;;;;;5024707;28;20559;-71
2022/09/05 10:04:53;;;;;;;8.20;4.67;;;24.40;66.00;;;;;;5026022;28;20421;-70
2022/09/05 10:07:51;;;;;;;9.57;4.73;;;24.50;65.40;;;;;;5025628;28;20409;-72
2022/09/05 10:10:38;;;;;;;7.33;4.47;;;24.50;65.00;;;;;;5025122;28;21125;-71
2022/09/05 10:13:29;;;;;;;7.57;3.90;;;24.60;64.80;;;;;;5026349;28;20450;-71
2022/09/05 10:16:13;;;;;;;4.43;4.20;;;24.80;64.10;;;;;;5023810;28;20489;-70
2022/09/05 10:18:44;;;;;;;11.63;4.40;;;24.80;64.20;;;;;;5031330;28;20441;-71
2022/09/05 10:21:32;;;;;;;7.80;4.53;;;24.90;64.40;;;;;;5031022;28;20545;-75
2022/09/05 10:24:20;;;;;;;10.13;4.40;;;25.00;64.20;;;;;;5032698;28;20444;-70
2022/09/05 10:26:56;;;;;;;5.50;3.80;;;25.20;63.90;;;;;;5030756;28;20418;-71
2022/09/05 10:29:57;;;;;;;6.43;4.20;;;25.20;63.80;;;;;;5031280;28;20487;-71
2022/09/05 10:32:50;;;;;;;8.77;4.87;;;25.50;62.60;;;;;;5029127;28;20460;-72
2022/09/05 10:35:24;;;;;;;7.83;4.53;;;25.60;61.60;;;;;;5031314;28;20426;-70
2022/09/05 10:38:06;;;;;;;7.07;3.90;;;25.60;62.00;;;;;;5013527;28;20429;-72
2022/09/05 10:40:34;;;;;;;6.23;4.70;;;25.70;61.50;;;;;;5025796;28;20436;-72
2022/09/05 10:43:34;;;;;;;4.73;3.37;;;25.80;60.70;;;;;;5031802;28;21458;-71
2022/09/05 10:46:39;;;;;;;5.40;3.93;;;26.20;61.50;;;;;;5031106;28;20449;-71
2022/09/05 10:49:09;;;;;;;6.97;3.90;;;26.90;59.10;;;;;;5029953;28;20433;-72
2022/09/05 10:52:01;;;;;;;6.77;4.17;;;27.50;57.40;;;;;;5029550;28;20552;-71
2022/09/05 10:55:00;;;;;;;7.20;3.93;;;28.00;56.90;;;;;;5018188;28;20454;-72
2022/09/05 10:57:26;;;;;;;4.40;3.60;;;28.50;53.40;;;;;;5029715;28;20669;-72
2022/09/05 10:59:52;;;;;;;5.90;4.00;;;29.00;51.60;;;;;;5028507;28;20911;-71
2022/09/05 11:02:21;;;;;;;7.67;4.10;;;29.10;50.50;;;;;;5030579;28;20216;-71
2022/09/05 11:05:03;;;;;;;5.00;3.73;;;29.00;51.60;;;;;;5027054;28;21010;-72
2022/09/05 11:08:00;;;;;;;4.27;3.03;;;29.40;48.50;;;;;;5029732;28;20774;-70
2022/09/05 11:10:36;;;;;;;6.13;3.07;;;29.30;46.60;;;;;;5031149;28;20452;-71
2022/09/05 11:13:16;;;;;;;4.30;3.47;;;29.20;47.40;;;;;;5030749;28;20863;-74
2022/09/05 11:16:07;;;;;;;14.63;4.30;;;29.40;48.10;;;;;;5031931;28;20518;-71
2022/09/05 11:18:44;;;;;;;6.03;3.40;;;29.70;47.70;;;;;;5027437;28;20422;-70
2022/09/05 11:21:16;;;;;;;3.80;3.30;;;30.00;46.90;;;;;;5028830;28;20555;-73
2022/09/05 11:23:45;;;;;;;3.33;3.00;;;30.50;44.10;;;;;;5027871;28;20516;-72
2022/09/05 11:26:42;;;;;;;4.50;2.90;;;31.00;44.10;;;;;;5029024;28;20424;-71
2022/09/05 11:29:16;;;;;;;5.07;3.30;;;31.10;44.10;;;;;;5026551;28;20417;-71
2022/09/05 11:32:27;;;;;;;3.60;2.80;;;31.40;41.90;;;;;;5041657;28;20856;-71
2022/09/05 11:35:17;;;;;;;6.43;3.23;;;31.60;43.40;;;;;;5043218;28;20565;-71
2022/09/05 11:37:55;;;;;;;5.60;3.43;;;31.80;40.70;;;;;;5029230;28;20463;-72
2022/09/05 11:40:32;;;;;;;6.63;2.90;;;31.70;39.80;;;;;;5027905;28;20474;-72
2022/09/05 11:43:36;;;;;;;6.03;3.23;;;31.10;40.80;;;;;;5029373;28;20547;-71
2022/09/05 11:46:13;;;;;;;3.30;3.00;;;31.30;40.80;;;;;;5026266;28;20416;-72
2022/09/05 11:48:47;;;;;;;5.30;3.73;;;31.80;39.20;;;;;;5011019;28;20824;-72
2022/09/05 11:51:27;;;;;;;5.17;3.20;;;30.70;40.40;;;;;;5032105;28;20447;-71
2022/09/05 11:54:25;;;;;;;5.07;3.73;;;30.60;41.90;;;;;;5034099;28;20482;-70
2022/09/05 11:57:30;;;;;;;5.70;3.23;;;30.60;41.20;;;;;;5031564;28;20507;-72
2022/09/05 12:00:43;;;;;;;4.87;3.43;;;30.00;42.70;;;;;;5011060;28;20893;-71
2022/09/05 12:03:41;;;;;;;4.60;2.90;;;29.70;43.80;;;;;;4966877;28;20467;-73
2022/09/05 12:06:43;;;;;;;4.83;2.60;;;30.70;42.60;;;;;;5028202;28;20414;-73
2022/09/05 12:09:28;;;;;;;3.00;2.80;;;31.30;40.70;;;;;;5028545;28;20412;-73
2022/09/05 12:12:23;;;;;;;4.10;3.20;;;31.10;41.10;;;;;;5028716;28;20544;-74
2022/09/05 12:15:28;;;;;;;4.07;2.90;;;31.00;41.00;;;;;;5026681;28;20419;-74
2022/09/05 12:18:09;;;;;;;4.50;2.97;;;30.90;41.10;;;;;;5025201;28;20412;-73
2022/09/05 12:21:01;;;;;;;4.87;3.40;;;31.20;40.60;;;;;;5028406;28;20415;-71
2022/09/05 12:23:31;;;;;;;6.47;3.17;;;31.70;39.80;;;;;;5025436;28;20459;-72
2022/09/05 12:26:21;;;;;;;3.90;3.00;;;31.90;40.20;;;;;;5025093;28;20425;-74
2022/09/05 12:28:56;;;;;;;7.00;3.70;;;32.10;40.40;;;;;;5024209;28;20454;-72
2022/09/05 12:31:37;;;;;;;3.33;3.10;;;31.90;39.40;;;;;;5026380;28;20408;-74
2022/09/05 12:34:09;;;;;;;3.80;3.20;;;31.30;40.60;;;;;;5025758;28;20416;-74
2022/09/05 12:36:39;;;;;;;5.70;3.17;;;31.60;41.40;;;;;;5028590;28;20435;-74
2022/09/05 12:39:27;;;;;;;6.17;3.20;;;32.10;39.90;;;;;;5024360;28;20409;-76
2022/09/05 12:42:03;;;;;;;5.00;3.27;;;32.60;38.80;;;;;;5021531;28;20483;-73
2022/09/05 12:44:29;;;;;;;6.57;3.60;;;32.60;37.90;;;;;;5025699;28;20443;-75
2022/09/05 12:47:01;;;;;;;3.00;2.70;;;32.00;39.40;;;;;;5031994;28;20431;-73
2022/09/05 12:49:38;;;;;;;5.47;3.07;;;32.00;39.50;;;;;;5030714;28;20283;-74
2022/09/05 12:52:32;;;;;;;5.63;3.27;;;32.10;39.80;;;;;;5027885;28;20548;-74
2022/09/05 12:55:09;;;;;;;3.30;2.77;;;32.10;39.40;;;;;;5010707;28;20424;-74
2022/09/05 12:57:40;;;;;;;4.07;3.20;;;31.50;40.30;;;;;;5030098;28;20922;-74
2022/09/05 13:00:16;;;;;;;4.37;2.90;;;30.70;41.50;;;;;;5026745;28;20424;-74
2022/09/05 13:02:45;;;;;;;7.00;3.93;;;30.80;41.60;;;;;;5026879;28;20609;-74
2022/09/05 13:05:25;;;;;;;5.47;3.50;;;30.70;42.20;;;;;;5009701;28;20424;-71
2022/09/05 13:07:57;;;;;;;5.77;3.30;;;31.40;40.80;;;;;;5027230;28;20427;-69
2022/09/05 13:10:38;;;;;;;3.83;2.90;;;31.70;39.60;;;;;;5027326;28;20420;-70
2022/09/05 13:13:11;;;;;;;3.07;2.90;;;32.00;38.40;;;;;;5026783;28;20516;-71
2022/09/05 13:15:40;;;;;;;3.77;2.97;;;32.10;38.20;;;;;;5026576;28;20938;-72
2022/09/05 13:18:22;;;;;;;4.37;3.10;;;32.00;38.30;;;;;;5023460;28;20968;-72
2022/09/05 13:21:06;;;;;;;3.80;3.00;;;32.00;37.80;;;;;;5024585;28;20873;-71
2022/09/05 13:23:57;;;;;;;6.80;3.73;;;32.10;38.00;;;;;;5024273;28;20942;-71
2022/09/05 13:26:35;;;;;;;3.40;3.20;;;31.60;38.30;;;;;;5012338;28;20989;-70
2022/09/05 13:29:13;;;;;;;3.43;2.90;;;31.70;39.00;;;;;;5025236;28;20431;-70
2022/09/05 13:31:43;;;;;;;3.70;2.73;;;32.30;37.90;;;;;;5025086;28;20442;-70
2022/09/05 13:34:21;;;;;;;4.60;3.40;;;32.60;37.50;;;;;;5022717;28;20495;-71
2022/09/05 13:36:50;;;;;;;3.60;3.00;;;31.90;37.80;;;;;;5030115;28;20428;-71
2022/09/05 13:39:19;;;;;;;3.53;3.07;;;31.20;39.60;;;;;;5029026;28;20436;-73
2022/09/05 13:42:03;;;;;;;4.63;3.17;;;31.30;39.90;;;;;;5026434;28;20484;-72
2022/09/05 13:44:36;;;;;;;4.20;3.43;;;31.40;38.40;;;;;;5024158;28;20443;-73
2022/09/05 13:47:09;;;;;;;3.77;3.57;;;31.20;38.70;;;;;;5029514;28;20427;-70
2022/09/05 13:49:56;;;;;;;3.73;2.90;;;31.20;39.10;;;;;;5028414;28;20886;-70
2022/09/05 13:52:34;;;;;;;4.87;2.90;;;30.70;40.00;;;;;;5026516;28;20466;-72
2022/09/05 13:55:18;;;;;;;4.27;2.70;;;30.60;40.60;;;;;;5030883;28;20548;-72
2022/09/05 13:58:06;;;;;;;4.60;3.20;;;31.00;39.90;;;;;;5029559;28;20447;-72
2022/09/05 14:00:34;;;;;;;7.30;3.30;;;31.80;39.40;;;;;;5032331;28;20427;-71
2022/09/05 14:03:18;;;;;;;4.60;2.97;;;32.90;36.60;;;;;;5029025;28;20645;-72
2022/09/05 14:06:03;;;;;;;3.80;2.70;;;33.60;32.80;;;;;;5011806;28;21007;-71